Etusivu
METAR-TAF:

METAR-TAF

Lentoasemat :

Caen, Ranska

Leveyspiiri: 49-11N, Pituuspiiri: 000-27W, korkeus merenpinnasta: 78 m

Tämänhetkinen sää

Tämä raportti tehtiin 23 minuuttia sitten, kello 10.30 UTC
Tuuli 8 kn idästä
Lämpötila 16°C
Kosteus 59%
Ilmanpaine 1028 hPa
Näkyvyys 10 km tai enemmän
ei pilviä alle 1500 m:ssä eikä cumulonimbus-pilviä

METAR: LFRK 071030Z AUTO 09008KT CAVOK 16/08 Q1028 NOSIG

Aika: 12:53 (10:53 UTC)


TAF: puuttuu

Säähavainnot ja -ennusteet yli 4000 lentoasemalta (METAR- ja TAF-raportit).

Käytössä olevat sääasemat on merkitty karttaan keltaisilla ja punaisilla pisteillä.

Aseta hiiri pisteen päälle nähdäksesi sääaseman nimen.

Klikkaa sitten nähdäksesi säähavainnot ja -ennusteet.

Kartan vaihtaminen: klikkaa mustalla rastilla varustettuja vihreitä pisteitä, niin voit zoomata sisään; viivalla varustettua vihreää pistettä, niin voit zoomata ulos tai vihreitä nuolia, niin pääset viereisille kartoille.


METAR-TAF: